sensor_id;sensor_type;location;lat;lon;timestamp;pressure;altitude;pressure_sealevel;temperature;humidity
51249;BME280;39642;47.556;18.728;2023-08-21T00:00:03;100048.34;;;24.71;64.50
51249;BME280;39642;47.556;18.728;2023-08-21T00:02:30;100058.06;;;24.72;64.47
51249;BME280;39642;47.556;18.728;2023-08-21T00:04:56;100052.81;;;24.71;64.46
51249;BME280;39642;47.556;18.728;2023-08-21T00:07:22;100054.66;;;24.70;64.48
51249;BME280;39642;47.556;18.728;2023-08-21T00:09:48;100051.13;;;24.70;64.51
51249;BME280;39642;47.556;18.728;2023-08-21T00:12:14;100048.44;;;24.70;64.48
51249;BME280;39642;47.556;18.728;2023-08-21T00:14:40;100052.94;;;24.69;64.47
51249;BME280;39642;47.556;18.728;2023-08-21T00:17:06;100045.78;;;24.70;64.52
51249;BME280;39642;47.556;18.728;2023-08-21T00:19:32;100064.41;;;24.70;64.49
51249;BME280;39642;47.556;18.728;2023-08-21T00:21:58;100059.09;;;24.70;64.46
51249;BME280;39642;47.556;18.728;2023-08-21T00:24:24;100058.25;;;24.69;64.49
51249;BME280;39642;47.556;18.728;2023-08-21T00:26:50;100046.66;;;24.70;64.47
51249;BME280;39642;47.556;18.728;2023-08-21T00:29:15;100044.94;;;24.69;64.46
51249;BME280;39642;47.556;18.728;2023-08-21T00:31:41;100050.25;;;24.69;64.45
51249;BME280;39642;47.556;18.728;2023-08-21T00:34:07;100051.13;;;24.70;64.44
51249;BME280;39642;47.556;18.728;2023-08-21T00:36:33;100056.44;;;24.70;64.46
51249;BME280;39642;47.556;18.728;2023-08-21T00:38:59;100052.94;;;24.69;64.44
51249;BME280;39642;47.556;18.728;2023-08-21T00:41:25;100044.94;;;24.69;64.44
51249;BME280;39642;47.556;18.728;2023-08-21T00:43:51;100052.00;;;24.70;64.41
51249;BME280;39642;47.556;18.728;2023-08-21T00:46:16;100053.91;;;24.68;64.43
51249;BME280;39642;47.556;18.728;2023-08-21T00:48:43;100054.75;;;24.69;64.41
51249;BME280;39642;47.556;18.728;2023-08-21T00:51:10;100052.09;;;24.69;64.41
51249;BME280;39642;47.556;18.728;2023-08-21T00:53:38;100054.75;;;24.69;64.42
51249;BME280;39642;47.556;18.728;2023-08-21T00:56:04;100046.75;;;24.69;64.42
51249;BME280;39642;47.556;18.728;2023-08-21T00:58:30;100044.09;;;24.69;64.41
51249;BME280;39642;47.556;18.728;2023-08-21T01:00:56;100054.75;;;24.69;64.38
51249;BME280;39642;47.556;18.728;2023-08-21T01:03:23;100050.41;;;24.68;64.36
51249;BME280;39642;47.556;18.728;2023-08-21T01:05:49;100052.09;;;24.69;64.36
51249;BME280;39642;47.556;18.728;2023-08-21T01:08:21;100056.56;;;24.68;64.39
51249;BME280;39642;47.556;18.728;2023-08-21T01:10:52;100058.38;;;24.68;64.39
51249;BME280;39642;47.556;18.728;2023-08-21T01:13:33;100070.72;;;24.69;64.36
51249;BME280;39642;47.556;18.728;2023-08-21T01:16:00;100063.72;;;24.68;64.38
51249;BME280;39642;47.556;18.728;2023-08-21T01:18:28;100064.66;;;24.67;64.36
51249;BME280;39642;47.556;18.728;2023-08-21T01:20:55;100062.84;;;24.67;64.35
51249;BME280;39642;47.556;18.728;2023-08-21T01:25:58;100074.37;;;24.68;64.32
51249;BME280;39642;47.556;18.728;2023-08-21T01:28:24;100067.31;;;24.67;64.32
51249;BME280;39642;47.556;18.728;2023-08-21T01:30:51;100074.47;;;24.66;64.33
51249;BME280;39642;47.556;18.728;2023-08-21T01:33:21;100077.13;;;24.66;64.28
51249;BME280;39642;47.556;18.728;2023-08-21T01:35:49;100066.47;;;24.66;64.28
51249;BME280;39642;47.556;18.728;2023-08-21T01:38:15;100077.97;;;24.67;64.26
51249;BME280;39642;47.556;18.728;2023-08-21T01:40:41;100064.75;;;24.65;64.24
51249;BME280;39642;47.556;18.728;2023-08-21T01:43:06;100068.28;;;24.66;64.26
51249;BME280;39642;47.556;18.728;2023-08-21T01:45:32;100071.91;;;24.65;64.23
51249;BME280;39642;47.556;18.728;2023-08-21T01:47:58;100071.06;;;24.64;64.22
51249;BME280;39642;47.556;18.728;2023-08-21T01:50:24;100071.91;;;24.65;64.23
51249;BME280;39642;47.556;18.728;2023-08-21T01:52:50;100067.56;;;24.64;64.19
51249;BME280;39642;47.556;18.728;2023-08-21T01:55:16;100074.56;;;24.65;64.15
51249;BME280;39642;47.556;18.728;2023-08-21T01:57:42;100077.22;;;24.65;64.14
51249;BME280;39642;47.556;18.728;2023-08-21T02:00:08;100074.56;;;24.65;64.12
51249;BME280;39642;47.556;18.728;2023-08-21T02:02:34;100078.06;;;24.65;64.11
51249;BME280;39642;47.556;18.728;2023-08-21T02:05:00;100079.03;;;24.64;64.09
51249;BME280;39642;47.556;18.728;2023-08-21T02:07:26;100074.56;;;24.65;64.07
51249;BME280;39642;47.556;18.728;2023-08-21T02:09:52;100080.72;;;24.65;64.05
51249;BME280;39642;47.556;18.728;2023-08-21T02:12:17;100083.41;;;24.65;64.01
51249;BME280;39642;47.556;18.728;2023-08-21T02:14:44;100084.28;;;24.66;64.01
51249;BME280;39642;47.556;18.728;2023-08-21T02:17:10;100085.22;;;24.65;64.00
51249;BME280;39642;47.556;18.728;2023-08-21T02:19:35;100086.06;;;24.65;63.98
51249;BME280;39642;47.556;18.728;2023-08-21T02:22:01;100078.19;;;24.64;64.02
51249;BME280;39642;47.556;18.728;2023-08-21T02:24:27;100072.88;;;24.64;64.00
51249;BME280;39642;47.556;18.728;2023-08-21T02:26:53;100078.19;;;24.64;64.01
51249;BME280;39642;47.556;18.728;2023-08-21T02:29:19;100074.69;;;24.63;64.01
51249;BME280;39642;47.556;18.728;2023-08-21T02:31:45;100080.87;;;24.64;64.01
51249;BME280;39642;47.556;18.728;2023-08-21T02:34:11;100078.19;;;24.64;63.98
51249;BME280;39642;47.556;18.728;2023-08-21T02:36:37;100072.03;;;24.63;63.96
51249;BME280;39642;47.556;18.728;2023-08-21T02:39:03;100070.22;;;24.64;63.98
51249;BME280;39642;47.556;18.728;2023-08-21T02:41:29;100067.56;;;24.64;63.99
51249;BME280;39642;47.556;18.728;2023-08-21T02:43:55;100071.06;;;24.64;63.97
51249;BME280;39642;47.556;18.728;2023-08-21T02:46:21;100063.16;;;24.63;63.99
51249;BME280;39642;47.556;18.728;2023-08-21T02:48:47;100065.84;;;24.63;63.98
51249;BME280;39642;47.556;18.728;2023-08-21T02:51:13;100072.03;;;24.63;63.99
51249;BME280;39642;47.556;18.728;2023-08-21T02:53:38;100063.31;;;24.61;63.98
51249;BME280;39642;47.556;18.728;2023-08-21T02:56:04;100067.66;;;24.62;64.00
51249;BME280;39642;47.556;18.728;2023-08-21T02:58:30;100064.03;;;24.63;64.00
51249;BME280;39642;47.556;18.728;2023-08-21T03:00:56;100063.16;;;24.63;64.01
51249;BME280;39642;47.556;18.728;2023-08-21T03:03:22;100064.03;;;24.63;64.01
51249;BME280;39642;47.556;18.728;2023-08-21T03:05:48;100059.66;;;24.62;64.02
51249;BME280;39642;47.556;18.728;2023-08-21T03:08:14;100061.47;;;24.62;64.06
51249;BME280;39642;47.556;18.728;2023-08-21T03:10:40;100059.66;;;24.62;64.06
51249;BME280;39642;47.556;18.728;2023-08-21T03:13:06;100065.97;;;24.61;64.07
51249;BME280;39642;47.556;18.728;2023-08-21T03:15:32;100065.09;;;24.61;64.05
51249;BME280;39642;47.556;18.728;2023-08-21T03:17:57;100062.31;;;24.62;64.07
51249;BME280;39642;47.556;18.728;2023-08-21T03:20:23;100062.44;;;24.61;64.07
51249;BME280;39642;47.556;18.728;2023-08-21T03:22:50;100069.47;;;24.62;64.04
51249;BME280;39642;47.556;18.728;2023-08-21T03:25:16;100069.47;;;24.62;64.03
51249;BME280;39642;47.556;18.728;2023-08-21T03:27:42;100073.94;;;24.61;64.05
51249;BME280;39642;47.556;18.728;2023-08-21T03:30:10;100073.81;;;24.63;64.03
51249;BME280;39642;47.556;18.728;2023-08-21T03:32:36;100081.94;;;24.61;64.02
51249;BME280;39642;47.556;18.728;2023-08-21T03:35:02;100074.78;;;24.62;64.02
51249;BME280;39642;47.556;18.728;2023-08-21T03:37:28;100086.28;;;24.62;64.00
51249;BME280;39642;47.556;18.728;2023-08-21T03:39:54;100085.44;;;24.62;63.99
51249;BME280;39642;47.556;18.728;2023-08-21T03:42:20;100072.97;;;24.62;63.99
51249;BME280;39642;47.556;18.728;2023-08-21T03:44:46;100079.28;;;24.61;63.98
51249;BME280;39642;47.556;18.728;2023-08-21T03:47:14;100082.88;;;24.60;64.02
51249;BME280;39642;47.556;18.728;2023-08-21T03:49:40;100077.56;;;24.60;63.98
51249;BME280;39642;47.556;18.728;2023-08-21T03:52:05;100082.88;;;24.60;64.02
51249;BME280;39642;47.556;18.728;2023-08-21T03:54:31;100080.22;;;24.60;64.01
51249;BME280;39642;47.556;18.728;2023-08-21T03:56:57;100077.56;;;24.60;63.98
51249;BME280;39642;47.556;18.728;2023-08-21T03:59:23;100082.03;;;24.60;63.96
51249;BME280;39642;47.556;18.728;2023-08-21T04:01:53;100077.66;;;24.59;63.99
51249;BME280;39642;47.556;18.728;2023-08-21T04:04:19;100080.22;;;24.60;63.96
51249;BME280;39642;47.556;18.728;2023-08-21T04:06:45;100076.81;;;24.58;63.98
51249;BME280;39642;47.556;18.728;2023-08-21T04:09:11;100079.38;;;24.60;63.99
51249;BME280;39642;47.556;18.728;2023-08-21T04:11:36;100084.69;;;24.60;63.98
51249;BME280;39642;47.556;18.728;2023-08-21T04:14:03;100085.63;;;24.59;63.97
51249;BME280;39642;47.556;18.728;2023-08-21T04:16:29;100087.47;;;24.58;64.00
51249;BME280;39642;47.556;18.728;2023-08-21T04:18:56;100089.28;;;24.58;63.97
51249;BME280;39642;47.556;18.728;2023-08-21T04:21:22;100096.28;;;24.59;63.97
51249;BME280;39642;47.556;18.728;2023-08-21T04:23:48;100098.00;;;24.60;63.92
51249;BME280;39642;47.556;18.728;2023-08-21T04:26:14;100091.84;;;24.59;63.90
51249;BME280;39642;47.556;18.728;2023-08-21T04:28:40;100089.94;;;24.61;63.87
51249;BME280;39642;47.556;18.728;2023-08-21T04:31:07;100089.03;;;24.61;63.87
51249;BME280;39642;47.556;18.728;2023-08-21T04:33:33;100092.59;;;24.61;63.83
51249;BME280;39642;47.556;18.728;2023-08-21T04:36:00;100088.22;;;24.60;63.86
51249;BME280;39642;47.556;18.728;2023-08-21T04:38:26;100088.22;;;24.60;63.83
51249;BME280;39642;47.556;18.728;2023-08-21T04:40:52;100093.53;;;24.60;63.83
51249;BME280;39642;47.556;18.728;2023-08-21T04:43:18;100092.69;;;24.60;63.84
51249;BME280;39642;47.556;18.728;2023-08-21T04:45:51;100098.84;;;24.60;63.83
51249;BME280;39642;47.556;18.728;2023-08-21T04:48:18;100099.81;;;24.59;63.83
51249;BME280;39642;47.556;18.728;2023-08-21T04:50:45;100095.34;;;24.60;63.82
51249;BME280;39642;47.556;18.728;2023-08-21T04:53:12;100094.37;;;24.61;63.80
51249;BME280;39642;47.556;18.728;2023-08-21T04:55:39;100105.91;;;24.61;63.78
51249;BME280;39642;47.556;18.728;2023-08-21T04:58:09;100104.19;;;24.60;63.81
51249;BME280;39642;47.556;18.728;2023-08-21T05:00:36;100103.34;;;24.60;63.83
51249;BME280;39642;47.556;18.728;2023-08-21T05:03:02;100114.84;;;24.60;63.81
51249;BME280;39642;47.556;18.728;2023-08-21T05:05:28;100121.87;;;24.61;63.81
51249;BME280;39642;47.556;18.728;2023-08-21T05:07:54;100122.72;;;24.62;63.74
51249;BME280;39642;47.556;18.728;2023-08-21T05:10:20;100131.56;;;24.62;63.77
51249;BME280;39642;47.556;18.728;2023-08-21T05:12:46;100122.72;;;24.62;63.79
51249;BME280;39642;47.556;18.728;2023-08-21T05:15:12;100122.63;;;24.63;63.76
51249;BME280;39642;47.556;18.728;2023-08-21T05:17:38;100129.63;;;24.64;63.77
51249;BME280;39642;47.556;18.728;2023-08-21T05:20:04;100128.78;;;24.64;63.79
51249;BME280;39642;47.556;18.728;2023-08-21T05:22:30;100128.78;;;24.64;63.79
51249;BME280;39642;47.556;18.728;2023-08-21T05:24:56;100126.97;;;24.64;63.78
51249;BME280;39642;47.556;18.728;2023-08-21T05:27:22;100124.31;;;24.64;63.82
51249;BME280;39642;47.556;18.728;2023-08-21T05:29:48;100132.28;;;24.64;63.84
51249;BME280;39642;47.556;18.728;2023-08-21T05:32:16;100133.13;;;24.65;63.85
51249;BME280;39642;47.556;18.728;2023-08-21T05:34:42;100128.78;;;24.64;63.86
51249;BME280;39642;47.556;18.728;2023-08-21T05:37:08;100134.88;;;24.66;63.89
51249;BME280;39642;47.556;18.728;2023-08-21T05:39:34;100141.97;;;24.65;63.90
51249;BME280;39642;47.556;18.728;2023-08-21T05:42:00;100141.03;;;24.66;63.93
51249;BME280;39642;47.556;18.728;2023-08-21T05:44:26;100138.38;;;24.66;63.95
51249;BME280;39642;47.556;18.728;2023-08-21T05:46:52;100133.88;;;24.67;63.97
51249;BME280;39642;47.556;18.728;2023-08-21T05:49:18;100140.06;;;24.67;64.00
51249;BME280;39642;47.556;18.728;2023-08-21T05:51:44;100132.94;;;24.68;64.05
51249;BME280;39642;47.556;18.728;2023-08-21T05:54:10;100138.28;;;24.68;64.10
51249;BME280;39642;47.556;18.728;2023-08-21T05:56:36;100133.78;;;24.68;64.10
51249;BME280;39642;47.556;18.728;2023-08-21T05:59:02;100129.31;;;24.69;64.10
51249;BME280;39642;47.556;18.728;2023-08-21T06:01:27;100137.28;;;24.69;64.15
51249;BME280;39642;47.556;18.728;2023-08-21T06:03:53;100136.31;;;24.70;64.18
51249;BME280;39642;47.556;18.728;2023-08-21T06:06:20;100133.66;;;24.70;64.22
51249;BME280;39642;47.556;18.728;2023-08-21T06:08:45;100138.97;;;24.70;64.27
51249;BME280;39642;47.556;18.728;2023-08-21T06:11:11;100141.66;;;24.70;64.27
51249;BME280;39642;47.556;18.728;2023-08-21T06:13:37;100147.84;;;24.70;64.32
51249;BME280;39642;47.556;18.728;2023-08-21T06:16:03;100146.03;;;24.71;64.35
51249;BME280;39642;47.556;18.728;2023-08-21T06:18:29;100145.94;;;24.72;64.39
51249;BME280;39642;47.556;18.728;2023-08-21T06:20:55;100148.69;;;24.71;64.43
51249;BME280;39642;47.556;18.728;2023-08-21T06:23:21;100147.72;;;24.72;64.49
51249;BME280;39642;47.556;18.728;2023-08-21T06:25:48;100142.28;;;24.73;64.50
51249;BME280;39642;47.556;18.728;2023-08-21T06:28:14;100150.28;;;24.73;64.55
51249;BME280;39642;47.556;18.728;2023-08-21T06:30:40;100151.12;;;24.74;64.57
51249;BME280;39642;47.556;18.728;2023-08-21T06:33:06;100149.34;;;24.75;64.59
51249;BME280;39642;47.556;18.728;2023-08-21T06:35:32;100152.72;;;24.77;64.62
51249;BME280;39642;47.556;18.728;2023-08-21T06:37:57;100146.56;;;24.76;64.66
51249;BME280;39642;47.556;18.728;2023-08-21T06:40:24;100143.78;;;24.78;64.68
51249;BME280;39642;47.556;18.728;2023-08-21T06:42:49;100150.94;;;24.77;64.70
51249;BME280;39642;47.556;18.728;2023-08-21T06:45:16;100148.13;;;24.79;64.73
51249;BME280;39642;47.556;18.728;2023-08-21T06:47:43;100140.16;;;24.79;64.73
51249;BME280;39642;47.556;18.728;2023-08-21T06:50:09;100140.06;;;24.80;64.78
51249;BME280;39642;47.556;18.728;2023-08-21T06:52:35;100140.91;;;24.81;64.79
51249;BME280;39642;47.556;18.728;2023-08-21T06:55:01;100138.97;;;24.83;64.80
51249;BME280;39642;47.556;18.728;2023-08-21T06:57:27;100135.47;;;24.82;64.78
51249;BME280;39642;47.556;18.728;2023-08-21T06:59:53;100138.87;;;24.84;64.78
51249;BME280;39642;47.556;18.728;2023-08-21T07:02:19;100137.91;;;24.85;64.77
51249;BME280;39642;47.556;18.728;2023-08-21T07:04:45;100138.78;;;24.86;64.78
51249;BME280;39642;47.556;18.728;2023-08-21T07:07:11;100138.78;;;24.86;64.79
51249;BME280;39642;47.556;18.728;2023-08-21T07:09:37;100143.13;;;24.87;64.80
51249;BME280;39642;47.556;18.728;2023-08-21T07:12:03;100143.03;;;24.88;64.81
51249;BME280;39642;47.556;18.728;2023-08-21T07:14:29;100136.72;;;24.89;64.81
51249;BME280;39642;47.556;18.728;2023-08-21T07:16:55;100136.72;;;24.89;64.79
51249;BME280;39642;47.556;18.728;2023-08-21T07:19:21;100149.09;;;24.90;64.82
51249;BME280;39642;47.556;18.728;2023-08-21T07:21:47;100146.31;;;24.92;64.77
51249;BME280;39642;47.556;18.728;2023-08-21T07:24:13;100145.37;;;24.93;64.79
51249;BME280;39642;47.556;18.728;2023-08-21T07:26:39;100145.22;;;24.94;64.83
51249;BME280;39642;47.556;18.728;2023-08-21T07:29:05;100140.88;;;24.93;64.86
51249;BME280;39642;47.556;18.728;2023-08-21T07:31:31;100146.09;;;24.95;64.87
51249;BME280;39642;47.556;18.728;2023-08-21T07:33:57;100146.09;;;24.95;64.82
51249;BME280;39642;47.556;18.728;2023-08-21T07:36:23;100150.47;;;24.96;64.87
51249;BME280;39642;47.556;18.728;2023-08-21T07:38:49;100150.34;;;24.98;64.86
51249;BME280;39642;47.556;18.728;2023-08-21T07:41:16;100150.22;;;24.99;64.85
51249;BME280;39642;47.556;18.728;2023-08-21T07:43:43;100151.09;;;25.00;64.85
51249;BME280;39642;47.556;18.728;2023-08-21T07:46:11;100156.44;;;25.00;64.69
51249;BME280;39642;47.556;18.728;2023-08-21T07:48:45;100154.63;;;25.00;64.64
51249;BME280;39642;47.556;18.728;2023-08-21T07:51:11;100163.34;;;25.02;64.67
51249;BME280;39642;47.556;18.728;2023-08-21T07:53:37;100160.69;;;25.02;64.60
51249;BME280;39642;47.556;18.728;2023-08-21T07:56:03;100159.72;;;25.03;64.73
51249;BME280;39642;47.556;18.728;2023-08-21T07:58:30;100160.56;;;25.04;64.73
51249;BME280;39642;47.556;18.728;2023-08-21T08:00:56;100169.41;;;25.04;64.58
51249;BME280;39642;47.556;18.728;2023-08-21T08:03:22;100163.13;;;25.05;64.56
51249;BME280;39642;47.556;18.728;2023-08-21T08:05:48;100158.63;;;25.06;64.53
51249;BME280;39642;47.556;18.728;2023-08-21T08:08:19;100165.69;;;25.07;64.54
51249;BME280;39642;47.556;18.728;2023-08-21T08:10:44;100164.72;;;25.08;64.60
51249;BME280;39642;47.556;18.728;2023-08-21T08:13:10;100163.75;;;25.09;64.60
51249;BME280;39642;47.556;18.728;2023-08-21T08:15:37;100164.59;;;25.09;64.56
51249;BME280;39642;47.556;18.728;2023-08-21T08:18:03;100167.28;;;25.09;64.56
51249;BME280;39642;47.556;18.728;2023-08-21T08:20:29;100160.97;;;25.10;64.54
51249;BME280;39642;47.556;18.728;2023-08-21T08:22:55;100162.69;;;25.11;63.79
51249;BME280;39642;47.556;18.728;2023-08-21T08:25:22;100161.59;;;25.14;64.01
51249;BME280;39642;47.556;18.728;2023-08-21T08:27:48;100164.16;;;25.16;64.35
51249;BME280;39642;47.556;18.728;2023-08-21T08:30:14;100159.69;;;25.16;63.95
51249;BME280;39642;47.556;18.728;2023-08-21T08:32:44;100162.34;;;25.16;64.26
51249;BME280;39642;47.556;18.728;2023-08-21T08:35:13;100163.19;;;25.17;64.11
51249;BME280;39642;47.556;18.728;2023-08-21T08:37:43;100161.38;;;25.17;63.97
51249;BME280;39642;47.556;18.728;2023-08-21T08:40:10;100166.69;;;25.17;63.71
51249;BME280;39642;47.556;18.728;2023-08-21T08:42:37;100166.69;;;25.17;63.72
51249;BME280;39642;47.556;18.728;2023-08-21T08:45:04;100171.03;;;25.20;63.72
51249;BME280;39642;47.556;18.728;2023-08-21T08:47:34;100172.72;;;25.21;63.56
51249;BME280;39642;47.556;18.728;2023-08-21T08:50:05;100168.72;;;25.26;63.25
51249;BME280;39642;47.556;18.728;2023-08-21T08:52:39;100174.59;;;25.31;63.18
51249;BME280;39642;47.556;18.728;2023-08-21T08:55:06;100174.47;;;25.33;63.50
51249;BME280;39642;47.556;18.728;2023-08-21T08:57:33;100177.13;;;25.33;63.57
51249;BME280;39642;47.556;18.728;2023-08-21T09:00:00;100179.94;;;25.31;63.60
51249;BME280;39642;47.556;18.728;2023-08-21T09:02:26;100174.59;;;25.31;63.64
51249;BME280;39642;47.556;18.728;2023-08-21T09:04:52;100172.87;;;25.30;63.61
51249;BME280;39642;47.556;18.728;2023-08-21T09:07:18;100173.84;;;25.29;63.68
51249;BME280;39642;47.556;18.728;2023-08-21T09:09:49;100167.56;;;25.30;63.70
51249;BME280;39642;47.556;18.728;2023-08-21T09:12:16;100168.53;;;25.29;63.69
51249;BME280;39642;47.556;18.728;2023-08-21T09:14:43;100167.69;;;25.29;63.69
51249;BME280;39642;47.556;18.728;2023-08-21T09:17:09;100167.69;;;25.29;63.35
51249;BME280;39642;47.556;18.728;2023-08-21T09:19:35;100169.28;;;25.31;62.98
51249;BME280;39642;47.556;18.728;2023-08-21T09:22:15;100158.28;;;25.36;62.87
51249;BME280;39642;47.556;18.728;2023-08-21T09:25:08;100170.62;;;25.37;63.06
51249;BME280;39642;47.556;18.728;2023-08-21T09:27:37;100155.59;;;25.36;63.18
51249;BME280;39642;47.556;18.728;2023-08-21T09:30:05;100150.38;;;25.34;62.88
51249;BME280;39642;47.556;18.728;2023-08-21T09:32:57;100145.03;;;25.34;62.86
51249;BME280;39642;47.556;18.728;2023-08-21T09:35:26;100150.19;;;25.38;62.81
51249;BME280;39642;47.556;18.728;2023-08-21T09:37:52;100147.38;;;25.39;62.76
51249;BME280;39642;47.556;18.728;2023-08-21T09:40:20;100145.34;;;25.43;62.72
51249;BME280;39642;47.556;18.728;2023-08-21T09:42:51;100139.78;;;25.46;62.77
51249;BME280;39642;47.556;18.728;2023-08-21T09:45:23;100140.62;;;25.46;63.11
51249;BME280;39642;47.556;18.728;2023-08-21T09:47:50;100145.00;;;25.47;62.92
51249;BME280;39642;47.556;18.728;2023-08-21T09:50:17;100132.84;;;25.43;63.02
51249;BME280;39642;47.556;18.728;2023-08-21T09:52:44;100135.63;;;25.42;63.02
51249;BME280;39642;47.556;18.728;2023-08-21T09:55:12;100133.94;;;25.41;63.08
51249;BME280;39642;47.556;18.728;2023-08-21T09:57:39;100127.88;;;25.39;63.13
51249;BME280;39642;47.556;18.728;2023-08-21T10:00:07;100132.34;;;25.38;63.18
51249;BME280;39642;47.556;18.728;2023-08-21T10:02:46;100128.94;;;25.36;63.25
51249;BME280;39642;47.556;18.728;2023-08-21T10:05:18;100121.91;;;25.35;63.27
51249;BME280;39642;47.556;18.728;2023-08-21T10:07:48;100116.69;;;25.33;63.31
51249;BME280;39642;47.556;18.728;2023-08-21T10:10:16;100120.22;;;25.34;63.31
51249;BME280;39642;47.556;18.728;2023-08-21T10:12:42;100121.06;;;25.34;63.36
51249;BME280;39642;47.556;18.728;2023-08-21T10:15:08;100110.50;;;25.33;63.36
51249;BME280;39642;47.556;18.728;2023-08-21T10:17:38;100117.66;;;25.32;62.97
51249;BME280;39642;47.556;18.728;2023-08-21T10:20:08;100115.63;;;25.36;62.90
51249;BME280;39642;47.556;18.728;2023-08-21T10:22:45;100113.69;;;25.38;63.09
51249;BME280;39642;47.556;18.728;2023-08-21T10:25:16;100111.97;;;25.37;63.19
51249;BME280;39642;47.556;18.728;2023-08-21T10:27:43;100113.91;;;25.35;63.14
51249;BME280;39642;47.556;18.728;2023-08-21T10:30:20;100110.41;;;25.34;63.00
51249;BME280;39642;47.556;18.728;2023-08-21T10:32:47;100115.72;;;25.34;62.98
51249;BME280;39642;47.556;18.728;2023-08-21T10:35:14;100116.69;;;25.33;63.04
51249;BME280;39642;47.556;18.728;2023-08-21T10:38:11;100111.37;;;25.33;63.25
51249;BME280;39642;47.556;18.728;2023-08-21T10:40:39;100104.31;;;25.32;63.31
51249;BME280;39642;47.556;18.728;2023-08-21T10:43:44;100108.81;;;25.32;63.16
51249;BME280;39642;47.556;18.728;2023-08-21T10:46:10;100102.63;;;25.31;63.26
51249;BME280;39642;47.556;18.728;2023-08-21T10:48:36;100108.91;;;25.30;63.35
51249;BME280;39642;47.556;18.728;2023-08-21T10:51:05;100099.13;;;25.31;63.08
51249;BME280;39642;47.556;18.728;2023-08-21T10:53:31;100104.47;;;25.31;63.33
51249;BME280;39642;47.556;18.728;2023-08-21T10:56:05;100097.41;;;25.30;63.39
51249;BME280;39642;47.556;18.728;2023-08-21T10:58:41;100106.25;;;25.30;63.40
51249;BME280;39642;47.556;18.728;2023-08-21T11:01:07;100104.56;;;25.29;63.42
51249;BME280;39642;47.556;18.728;2023-08-21T11:03:33;100101.06;;;25.29;63.14
51249;BME280;39642;47.556;18.728;2023-08-21T11:06:06;100098.25;;;25.30;63.21
51249;BME280;39642;47.556;18.728;2023-08-21T11:08:33;100099.97;;;25.31;62.80
51249;BME280;39642;47.556;18.728;2023-08-21T11:11:04;100098.03;;;25.33;62.78
51249;BME280;39642;47.556;18.728;2023-08-21T11:13:30;100095.25;;;25.35;63.10
51249;BME280;39642;47.556;18.728;2023-08-21T11:16:04;100091.72;;;25.34;63.18
51249;BME280;39642;47.556;18.728;2023-08-21T11:18:34;100099.00;;;25.32;63.25
51249;BME280;39642;47.556;18.728;2023-08-21T11:21:11;100096.31;;;25.32;63.00
51249;BME280;39642;47.556;18.728;2023-08-21T11:23:39;100090.16;;;25.32;62.80
51249;BME280;39642;47.556;18.728;2023-08-21T11:26:06;100090.78;;;25.36;62.77
51249;BME280;39642;47.556;18.728;2023-08-21T11:28:35;100089.81;;;25.37;63.12
51249;BME280;39642;47.556;18.728;2023-08-21T11:31:01;100091.72;;;25.34;63.16
51249;BME280;39642;47.556;18.728;2023-08-21T11:33:28;100083.00;;;25.32;63.19
51249;BME280;39642;47.556;18.728;2023-08-21T11:35:55;100087.47;;;25.32;63.11
51249;BME280;39642;47.556;18.728;2023-08-21T11:38:24;100088.31;;;25.32;62.79
51249;BME280;39642;47.556;18.728;2023-08-21T11:40:56;100084.59;;;25.35;62.58
51249;BME280;39642;47.556;18.728;2023-08-21T11:43:33;100087.13;;;25.37;62.77
51249;BME280;39642;47.556;18.728;2023-08-21T11:46:01;100091.63;;;25.36;62.91
51249;BME280;39642;47.556;18.728;2023-08-21T11:48:27;100081.91;;;25.35;62.55
51249;BME280;39642;47.556;18.728;2023-08-21T11:50:53;100088.22;;;25.34;62.79
51249;BME280;39642;47.556;18.728;2023-08-21T11:53:36;100081.91;;;25.35;63.01
51249;BME280;39642;47.556;18.728;2023-08-21T11:56:09;100082.06;;;25.33;62.79
51249;BME280;39642;47.556;18.728;2023-08-21T11:58:42;100077.66;;;25.32;62.38
51249;BME280;39642;47.556;18.728;2023-08-21T12:01:08;100076.47;;;25.37;62.12
51249;BME280;39642;47.556;18.728;2023-08-21T12:03:36;100071.78;;;25.40;62.02
51249;BME280;39642;47.556;18.728;2023-08-21T12:06:07;100076.88;;;25.43;61.77
51249;BME280;39642;47.556;18.728;2023-08-21T12:08:34;100071.19;;;25.48;61.68
51249;BME280;39642;47.556;18.728;2023-08-21T12:11:00;100075.56;;;25.49;61.82
51249;BME280;39642;47.556;18.728;2023-08-21T12:13:26;100072.91;;;25.49;61.55
51249;BME280;39642;47.556;18.728;2023-08-21T12:15:52;100070.94;;;25.51;61.53
51249;BME280;39642;47.556;18.728;2023-08-21T12:18:18;100062.28;;;25.60;61.07
51249;BME280;39642;47.556;18.728;2023-08-21T12:20:44;100070.78;;;25.65;60.80
51249;BME280;39642;47.556;18.728;2023-08-21T12:23:10;100068.59;;;25.70;60.53
51249;BME280;39642;47.556;18.728;2023-08-21T12:25:35;100065.59;;;25.75;60.28
51249;BME280;39642;47.556;18.728;2023-08-21T12:28:01;100067.06;;;25.79;60.12
51249;BME280;39642;47.556;18.728;2023-08-21T12:30:27;100059.91;;;25.80;60.04
51249;BME280;39642;47.556;18.728;2023-08-21T12:32:53;100062.34;;;25.83;59.98
51249;BME280;39642;47.556;18.728;2023-08-21T12:35:19;100059.53;;;25.84;59.90
51249;BME280;39642;47.556;18.728;2023-08-21T12:37:45;100059.53;;;25.84;59.89
51249;BME280;39642;47.556;18.728;2023-08-21T12:40:11;100055.31;;;25.82;60.13
51249;BME280;39642;47.556;18.728;2023-08-21T12:42:37;100045.81;;;25.77;60.02